KHFF

Mackall AAF Airport

Camp Mackall, North Carolina, USA
METAR KHFF 150256Z AUTO 00000KT 10SM CLR 22/21 A3003 RMK AO2 SLP182 T02220214 52016 $
Observed Flight Rules
Aug-15 @ 02:56 UTC (40 minutes ago) Visual Flight Rules
Visibility Clouds
10 miles
  • Clear skies
Temperatures Readings
Current 22°C / 72°F
Dewpoint 21°C / 70°F
Humidity 94%
Altimeter 30.03" Hg
Pressure 1018.2 hPa
Elevation 115
METAR KHFF 150256Z AUTO 00000KT 10SM CLR 22/21 A3003 RMK AO2 SLP182 T02220214 52016 $
Observed Flight Rules
Aug-15 @ 02:56 UTC
(40 minutes ago)
VFR
Clouds
  • Clear skies
Temperature Dewpoint
22°C / 72°F 21°C / 70°F
Humidity Altimeter Pressure
94% 30.03" Hg 1018.2 hPa